Time,TemperatureF,DewpointF,PressureIn,WindDirection,WindDirectionDegrees,WindSpeedMPH,WindSpeedGustMPH,Humidity,HourlyPrecipIn,Conditions,Clouds,dailyrainin,SoftwareType,DateUTC
2013-01-12 00:02:00,64.0,61.0,29.85,SSE,150,2.0,9.0,90,0.00,,,0.00,,2013-01-12 06:02:00,
2013-01-12 00:12:00,64.0,61.0,29.85,SSE,150,2.0,9.0,90,0.00,,,0.00,,2013-01-12 06:12:00,
2013-01-12 00:22:00,65.0,62.0,29.86,SW,223,3.0,9.0,90,0.00,,,0.00,,2013-01-12 06:22:00,
2013-01-12 00:32:00,65.0,62.0,29.86,WSW,244,3.0,11.0,90,0.00,,,0.00,,2013-01-12 06:32:00,
2013-01-12 00:42:00,65.0,62.0,29.86,WSW,244,3.0,11.0,90,0.00,,,0.00,,2013-01-12 06:42:00,
2013-01-12 00:52:00,65.0,62.0,29.86,SSW,211,1.0,12.0,89,0.00,,,0.00,,2013-01-12 06:52:00,
2013-01-12 01:02:00,65.0,62.0,29.86,SE,137,3.0,12.0,89,0.00,,,0.00,,2013-01-12 07:02:00,
2013-01-12 01:12:00,65.0,62.0,29.86,South,183,4.0,9.0,89,0.00,,,0.00,,2013-01-12 07:12:00,
2013-01-12 01:22:00,65.0,62.0,29.86,South,183,4.0,9.0,89,0.00,,,0.00,,2013-01-12 07:22:00,
2013-01-12 01:32:00,65.0,62.0,29.85,South,181,2.0,10.0,89,0.00,,,0.00,,2013-01-12 07:32:00,
2013-01-12 01:42:00,65.0,62.0,29.85,South,181,2.0,10.0,89,0.00,,,0.00,,2013-01-12 07:42:00,
2013-01-12 01:52:00,65.0,62.0,29.85,SSE,160,1.0,8.0,89,0.00,,,0.00,,2013-01-12 07:52:00,
2013-01-12 02:02:00,65.0,62.0,29.85,SSW,210,2.0,10.0,89,0.00,,,0.00,,2013-01-12 08:02:00,
2013-01-12 02:11:00,65.0,62.0,29.85,SSW,210,2.0,10.0,89,0.00,,,0.00,,2013-01-12 08:11:00,
2013-01-12 02:22:00,65.0,62.0,29.85,South,179,1.0,6.0,90,0.00,,,0.00,,2013-01-12 08:22:00,
2013-01-12 02:32:00,65.0,62.0,29.84,SE,133,0.0,8.0,90,0.00,,,0.00,,2013-01-12 08:32:00,
2013-01-12 02:42:00,65.0,62.0,29.84,SE,133,0.0,8.0,90,0.00,,,0.00,,2013-01-12 08:42:00,
2013-01-12 02:52:00,65.0,62.0,29.83,NE,43,1.0,7.0,90,0.00,,,0.00,,2013-01-12 08:52:00,
2013-01-12 03:02:00,65.0,62.0,29.83,North,356,1.0,6.0,90,0.00,,,0.00,,2013-01-12 09:02:00,
2013-01-12 03:12:00,65.0,62.0,29.83,North,356,1.0,6.0,90,0.00,,,0.00,,2013-01-12 09:12:00,
2013-01-12 03:22:00,64.0,61.0,29.84,West,280,1.0,7.0,91,0.00,,,0.00,,2013-01-12 09:22:00,
2013-01-12 03:32:00,64.0,62.0,29.82,ESE,105,0.0,6.0,92,0.00,,,0.00,,2013-01-12 09:32:00,
2013-01-12 03:42:00,64.0,62.0,29.82,ESE,105,0.0,6.0,92,0.00,,,0.00,,2013-01-12 09:42:00,
2013-01-12 03:52:00,64.0,62.0,29.83,West,259,2.0,8.0,92,0.00,,,0.00,,2013-01-12 09:52:00,
2013-01-12 04:02:00,64.0,62.0,29.83,East,84,0.0,4.0,93,0.00,,,0.00,,2013-01-12 10:02:00,
2013-01-12 04:12:00,64.0,62.0,29.83,East,84,0.0,4.0,93,0.00,,,0.00,,2013-01-12 10:12:00,
2013-01-12 04:22:00,64.0,62.0,29.82,East,91,1.0,4.0,93,0.00,,,0.00,,2013-01-12 10:22:00,
2013-01-12 04:32:00,64.0,62.0,29.81,East,79,0.0,6.0,93,0.00,,,0.00,,2013-01-12 10:32:00,
2013-01-12 04:42:00,64.0,62.0,29.81,East,79,0.0,6.0,93,0.00,,,0.00,,2013-01-12 10:42:00,
2013-01-12 04:52:00,64.0,62.0,29.81,SSE,150,0.0,4.0,93,0.00,,,0.00,,2013-01-12 10:52:00,
2013-01-12 05:02:00,64.0,62.0,29.81,South,170,0.0,5.0,93,0.00,,,0.00,,2013-01-12 11:02:00,
2013-01-12 05:12:00,64.0,62.0,29.82,SW,214,0.0,2.0,93,0.00,,,0.00,,2013-01-12 11:12:00,
2013-01-12 05:22:00,64.0,62.0,29.82,SW,214,0.0,2.0,93,0.00,,,0.00,,2013-01-12 11:22:00,
2013-01-12 05:32:00,64.0,62.0,29.81,SSW,204,0.0,2.0,93,0.00,,,0.00,,2013-01-12 11:32:00,
2013-01-12 05:42:00,64.0,62.0,29.81,SSW,204,0.0,2.0,93,0.00,,,0.00,,2013-01-12 11:42:00,
2013-01-12 05:52:00,64.0,62.0,29.81,South,191,0.0,1.0,93,0.00,,,0.00,,2013-01-12 11:52:00,
2013-01-12 06:02:00,64.0,62.0,29.80,SSW,192,0.0,0.0,93,0.00,,,0.00,,2013-01-12 12:02:00,
2013-01-12 06:12:00,64.0,62.0,29.80,SSW,192,0.0,0.0,93,0.00,,,0.00,,2013-01-12 12:12:00,
2013-01-12 06:22:00,64.0,62.0,29.80,South,191,0.0,0.0,93,0.00,,,0.00,,2013-01-12 12:22:00,
2013-01-12 06:32:00,64.0,62.0,29.82,South,191,0.0,0.0,94,0.00,,,0.00,,2013-01-12 12:32:00,
2013-01-12 06:42:00,64.0,62.0,29.82,South,191,0.0,0.0,94,0.00,,,0.00,,2013-01-12 12:42:00,
2013-01-12 06:52:00,63.0,61.0,29.82,South,191,0.0,0.0,94,0.00,,,0.00,,2013-01-12 12:52:00,
2013-01-12 07:02:00,63.0,61.0,29.83,South,191,0.0,0.0,94,0.00,,,0.00,,2013-01-12 13:02:00,
2013-01-12 07:12:00,63.0,61.0,29.83,South,191,0.0,0.0,94,0.00,,,0.00,,2013-01-12 13:12:00,
2013-01-12 07:22:00,63.0,61.0,29.82,South,191,0.0,1.0,94,0.00,,,0.00,,2013-01-12 13:22:00,
2013-01-12 07:33:00,63.0,62.0,29.82,SSE,160,0.0,0.0,95,0.00,,,0.00,,2013-01-12 13:33:00,
2013-01-12 07:42:00,63.0,62.0,29.82,SSE,160,0.0,0.0,95,0.00,,,0.00,,2013-01-12 13:42:00,
2013-01-12 07:52:00,63.0,62.0,29.81,SSE,160,0.0,0.0,95,0.00,,,0.00,,2013-01-12 13:52:00,
2013-01-12 08:02:00,63.0,62.0,29.82,SSE,150,0.0,1.0,95,0.00,,,0.00,,2013-01-12 14:02:00,
2013-01-12 08:12:00,63.0,62.0,29.82,SSE,150,0.0,1.0,95,0.00,,,0.00,,2013-01-12 14:12:00,
2013-01-12 08:22:00,63.0,62.0,29.82,SSE,150,0.0,1.0,95,0.00,,,0.00,,2013-01-12 14:22:00,
2013-01-12 08:33:00,63.0,62.0,29.82,East,86,0.0,1.0,95,0.00,,,0.00,,2013-01-12 14:33:00,
2013-01-12 08:43:00,63.0,62.0,29.82,East,86,0.0,1.0,95,0.00,,,0.00,,2013-01-12 14:43:00,
2013-01-12 08:53:00,63.0,62.0,29.82,NE,48,0.0,2.0,96,0.00,,,0.00,,2013-01-12 14:53:00,
2013-01-12 09:03:00,63.0,62.0,29.82,East,91,0.0,3.0,96,0.00,,,0.00,,2013-01-12 15:03:00,
2013-01-12 09:12:00,64.0,63.0,29.82,East,94,0.0,2.0,96,0.00,,,0.00,,2013-01-12 15:12:00,
2013-01-12 09:22:00,64.0,63.0,29.82,East,94,0.0,2.0,96,0.00,,,0.00,,2013-01-12 15:22:00,
2013-01-12 09:33:00,64.0,63.0,29.82,ENE,69,0.0,3.0,96,0.00,,,0.00,,2013-01-12 15:33:00,
2013-01-12 09:42:00,64.0,63.0,29.82,ENE,69,0.0,3.0,96,0.00,,,0.00,,2013-01-12 15:42:00,
2013-01-12 09:52:00,64.0,63.0,29.82,ENE,72,0.0,2.0,96,0.00,,,0.00,,2013-01-12 15:52:00,
2013-01-12 10:03:00,64.0,63.0,29.81,ENE,63,0.0,2.0,96,0.00,,,0.00,,2013-01-12 16:03:00,
2013-01-12 10:12:00,64.0,63.0,29.81,ENE,63,0.0,2.0,96,0.00,,,0.00,,2013-01-12 16:12:00,
2013-01-12 10:23:00,64.0,63.0,29.81,ENE,70,0.0,2.0,96,0.00,,,0.00,,2013-01-12 16:23:00,
2013-01-12 10:33:00,64.0,63.0,29.80,East,89,0.0,1.0,96,0.00,,,0.00,,2013-01-12 16:33:00,
2013-01-12 10:42:00,65.0,64.0,29.80,East,91,0.0,2.0,95,0.00,,,0.00,,2013-01-12 16:42:00,
2013-01-12 10:52:00,65.0,64.0,29.80,East,91,0.0,2.0,95,0.00,,,0.00,,2013-01-12 16:52:00,
2013-01-12 11:02:00,65.0,64.0,29.79,East,101,0.0,1.0,95,0.00,,,0.00,,2013-01-12 17:02:00,
2013-01-12 11:12:00,65.0,64.0,29.79,East,101,0.0,1.0,95,0.00,,,0.00,,2013-01-12 17:12:00,
2013-01-12 11:22:00,65.0,64.0,29.79,SSW,193,0.0,0.0,95,0.00,,,0.00,,2013-01-12 17:22:00,
2013-01-12 11:33:00,63.0,61.0,29.78,SSW,205,0.0,2.0,93,0.14,,,0.14,,2013-01-12 17:33:00,
2013-01-12 11:42:00,63.0,61.0,29.78,SSW,205,0.0,2.0,93,0.14,,,0.14,,2013-01-12 17:42:00,
2013-01-12 11:53:00,61.0,59.0,29.78,West,267,1.0,6.0,93,0.16,,,0.16,,2013-01-12 17:53:00,
2013-01-12 12:03:00,59.0,57.0,29.77,West,267,1.0,3.0,94,0.17,,,0.17,,2013-01-12 18:03:00,
2013-01-12 12:12:00,59.0,57.0,29.77,West,267,1.0,3.0,94,0.17,,,0.17,,2013-01-12 18:12:00,
2013-01-12 12:22:00,55.0,53.0,29.76,West,278,1.0,9.0,93,0.18,,,0.18,,2013-01-12 18:22:00,
2013-01-12 12:33:00,53.0,51.0,29.76,NW,309,0.0,7.0,94,0.04,,,0.18,,2013-01-12 18:33:00,
2013-01-12 12:42:00,53.0,51.0,29.76,NW,309,0.0,7.0,94,0.04,,,0.18,,2013-01-12 18:42:00,
2013-01-12 12:52:00,53.0,52.0,29.75,North,351,0.0,4.0,95,0.05,,,0.21,,2013-01-12 18:52:00,
2013-01-12 13:03:00,52.0,51.0,29.75,WNW,290,0.0,5.0,95,0.04,,,0.21,,2013-01-12 19:03:00,
2013-01-12 13:12:00,52.0,51.0,29.75,WNW,290,0.0,5.0,95,0.04,,,0.21,,2013-01-12 19:12:00,
2013-01-12 13:23:00,53.0,52.0,29.73,West,281,0.0,6.0,95,0.03,,,0.21,,2013-01-12 19:23:00,
2013-01-12 13:33:00,53.0,52.0,29.74,NNW,339,0.0,5.0,95,0.03,,,0.21,,2013-01-12 19:33:00,
2013-01-12 13:42:00,53.0,52.0,29.74,NNW,339,0.0,5.0,95,0.03,,,0.21,,2013-01-12 19:42:00,
2013-01-12 13:52:00,53.0,52.0,29.73,WNW,294,0.0,5.0,95,0.00,,,0.21,,2013-01-12 19:52:00,
2013-01-12 14:03:00,52.0,50.0,29.73,SW,231,1.0,5.0,94,0.00,,,0.21,,2013-01-12 20:03:00,
2013-01-12 14:12:00,51.0,49.0,29.72,West,271,1.0,5.0,92,0.00,,,0.21,,2013-01-12 20:12:00,
2013-01-12 14:22:00,51.0,49.0,29.72,West,271,1.0,5.0,92,0.00,,,0.21,,2013-01-12 20:22:00,
2013-01-12 14:32:00,51.0,48.0,29.70,WNW,294,0.0,6.0,91,0.00,,,0.21,,2013-01-12 20:32:00,
2013-01-12 14:42:00,51.0,48.0,29.70,WNW,294,0.0,6.0,91,0.00,,,0.21,,2013-01-12 20:42:00,
2013-01-12 14:53:00,52.0,49.0,29.71,NW,304,1.0,4.0,90,0.00,,,0.21,,2013-01-12 20:53:00,
2013-01-12 15:03:00,52.0,49.0,29.73,SSW,194,0.0,5.0,89,0.00,,,0.21,,2013-01-12 21:03:00,
2013-01-12 15:12:00,50.0,46.0,29.75,SSW,194,3.0,10.0,86,0.00,,,0.21,,2013-01-12 21:12:00,
2013-01-12 15:22:00,50.0,46.0,29.75,SSW,194,3.0,10.0,86,0.00,,,0.21,,2013-01-12 21:22:00,
2013-01-12 15:33:00,49.0,45.0,29.74,WNW,294,3.0,9.0,85,0.00,,,0.21,,2013-01-12 21:33:00,
2013-01-12 15:42:00,49.0,45.0,29.74,WNW,294,3.0,9.0,85,0.00,,,0.21,,2013-01-12 21:42:00,
2013-01-12 15:52:00,49.0,44.0,29.75,WNW,302,2.0,10.0,84,0.00,,,0.21,,2013-01-12 21:52:00,
2013-01-12 16:03:00,49.0,44.0,29.76,WNW,297,2.0,10.0,83,0.00,,,0.21,,2013-01-12 22:03:00,
2013-01-12 16:12:00,49.0,44.0,29.76,WNW,297,2.0,10.0,83,0.00,,,0.21,,2013-01-12 22:12:00,
2013-01-12 16:22:00,50.0,45.0,29.79,ENE,66,2.0,9.0,83,0.00,,,0.21,,2013-01-12 22:22:00,
2013-01-12 16:33:00,48.0,43.0,29.79,WNW,291,3.0,13.0,84,0.00,,,0.21,,2013-01-12 22:33:00,
2013-01-12 16:43:00,46.0,42.0,29.82,NNE,27,3.0,15.0,86,0.00,,,0.21,,2013-01-12 22:43:00,
2013-01-12 16:52:00,46.0,42.0,29.82,NNE,27,3.0,15.0,86,0.00,,,0.21,,2013-01-12 22:52:00,
2013-01-12 17:03:00,44.0,40.0,29.84,WSW,242,3.0,13.0,87,0.00,,,0.21,,2013-01-12 23:03:00,
2013-01-12 17:12:00,43.0,40.0,29.82,WSW,246,3.0,10.0,88,0.00,,,0.21,,2013-01-12 23:12:00,
2013-01-12 17:22:00,43.0,40.0,29.82,WSW,246,3.0,10.0,88,0.00,,,0.21,,2013-01-12 23:22:00,
2013-01-12 17:33:00,42.0,39.0,29.83,WSW,256,4.0,10.0,89,0.00,,,0.21,,2013-01-12 23:33:00,
2013-01-12 17:42:00,42.0,39.0,29.83,WSW,256,4.0,10.0,89,0.00,,,0.21,,2013-01-12 23:42:00,
2013-01-12 17:53:00,41.0,38.0,29.84,NW,318,2.0,9.0,90,0.00,,,0.21,,2013-01-12 23:53:00,
2013-01-12 18:03:00,41.0,38.0,29.86,NW,311,5.0,14.0,90,0.00,,,0.21,,2013-01-13 00:03:00,
2013-01-12 18:12:00,41.0,38.0,29.86,NW,311,5.0,14.0,90,0.00,,,0.21,,2013-01-13 00:12:00,
2013-01-12 18:22:00,41.0,38.0,29.88,WNW,285,0.0,8.0,89,0.00,,,0.21,,2013-01-13 00:22:00,
2013-01-12 18:33:00,40.0,37.0,29.90,WNW,297,5.0,13.0,88,0.00,,,0.21,,2013-01-13 00:33:00,
2013-01-12 18:42:00,40.0,37.0,29.90,WNW,297,5.0,13.0,88,0.00,,,0.21,,2013-01-13 00:42:00,
2013-01-12 18:52:00,39.0,36.0,29.90,WNW,292,3.0,12.0,88,0.00,,,0.21,,2013-01-13 00:52:00,
2013-01-12 19:02:00,38.0,35.0,29.91,SW,229,3.0,13.0,90,0.05,,,0.26,,2013-01-13 01:02:00,
2013-01-12 19:12:00,38.0,35.0,29.91,SW,229,3.0,13.0,90,0.05,,,0.26,,2013-01-13 01:12:00,
2013-01-12 19:22:00,37.0,35.0,29.92,NW,314,2.0,8.0,93,0.17,,,0.38,,2013-01-13 01:22:00,
2013-01-12 19:33:00,36.0,34.0,29.92,West,260,2.0,10.0,93,0.18,,,0.39,,2013-01-13 01:33:00,
2013-01-12 19:42:00,36.0,34.0,29.92,West,260,2.0,10.0,93,0.18,,,0.39,,2013-01-13 01:42:00,
2013-01-12 19:52:00,36.0,34.0,29.92,WNW,286,3.0,10.0,93,0.19,,,0.40,,2013-01-13 01:52:00,
2013-01-12 20:02:00,35.0,33.0,29.92,NNW,331,4.0,16.0,93,0.13,,,0.40,,2013-01-13 02:02:00,
2013-01-12 20:12:00,35.0,33.0,29.92,NNW,331,4.0,16.0,93,0.13,,,0.40,,2013-01-13 02:12:00,
2013-01-12 20:22:00,35.0,33.0,29.94,WNW,285,3.0,10.0,93,0.02,,,0.40,,2013-01-13 02:22:00,
2013-01-12 20:32:00,35.0,33.0,29.93,WNW,288,3.0,11.0,92,0.01,,,0.40,,2013-01-13 02:32:00,
2013-01-12 20:42:00,35.0,33.0,29.93,WNW,288,3.0,11.0,92,0.01,,,0.40,,2013-01-13 02:42:00,
2013-01-12 20:52:00,35.0,33.0,29.92,NW,309,2.0,10.0,91,0.00,,,0.40,,2013-01-13 02:52:00,
2013-01-12 21:02:00,35.0,33.0,29.94,ESE,113,2.0,8.0,91,0.00,,,0.40,,2013-01-13 03:02:00,
2013-01-12 21:12:00,35.0,33.0,29.94,ESE,113,2.0,8.0,91,0.00,,,0.40,,2013-01-13 03:12:00,
2013-01-12 21:22:00,35.0,33.0,29.96,SW,236,1.0,12.0,91,0.00,,,0.40,,2013-01-13 03:22:00,
2013-01-12 21:33:00,35.0,32.0,29.95,East,82,2.0,11.0,90,0.00,,,0.40,,2013-01-13 03:33:00,
2013-01-12 21:42:00,35.0,32.0,29.95,East,82,2.0,11.0,90,0.00,,,0.40,,2013-01-13 03:42:00,
2013-01-12 21:53:00,35.0,32.0,29.96,NW,320,2.0,8.0,90,0.00,,,0.40,,2013-01-13 03:53:00,
2013-01-12 22:02:00,35.0,32.0,29.96,NW,309,2.0,6.0,90,0.00,,,0.40,,2013-01-13 04:02:00,
2013-01-12 22:12:00,35.0,32.0,29.96,NW,309,2.0,6.0,90,0.00,,,0.40,,2013-01-13 04:12:00,
2013-01-12 22:22:00,35.0,32.0,29.96,WNW,283,2.0,11.0,89,0.00,,,0.40,,2013-01-13 04:22:00,
2013-01-12 22:32:00,36.0,33.0,29.97,West,273,1.0,7.0,88,0.00,,,0.40,,2013-01-13 04:32:00,
2013-01-12 22:42:00,36.0,33.0,29.97,West,273,1.0,7.0,88,0.00,,,0.40,,2013-01-13 04:42:00,
2013-01-12 22:53:00,36.0,33.0,29.97,WNW,298,1.0,10.0,88,0.00,,,0.40,,2013-01-13 04:53:00,
2013-01-12 23:03:00,36.0,33.0,29.98,SW,224,2.0,8.0,87,0.00,,,0.40,,2013-01-13 05:03:00,
2013-01-12 23:12:00,36.0,33.0,29.98,SW,224,2.0,8.0,87,0.00,,,0.40,,2013-01-13 05:12:00,
2013-01-12 23:22:00,36.0,33.0,29.99,WNW,297,1.0,11.0,87,0.00,,,0.40,,2013-01-13 05:22:00,
2013-01-12 23:32:00,35.0,32.0,29.99,WNW,286,1.0,6.0,88,0.00,,,0.40,,2013-01-13 05:32:00,
2013-01-12 23:42:00,35.0,32.0,29.99,WNW,286,1.0,6.0,88,0.00,,,0.40,,2013-01-13 05:42:00,
2013-01-12 23:53:00,35.0,32.0,29.98,West,264,1.0,7.0,87,0.00,,,0.40,,2013-01-13 05:53:00,